Time;durP1;ratioP1;P1;durP2;ratioP2;P2;SDS_P1;SDS_P2;PMS_P1;PMS_P2;Temp;Humidity;BMP_temperature;BMP_pressure;BME280_temperature;BME280_humidity;BME280_pressure;Samples;Min_cycle;Max_cycle;Signal;HPM_P1;HPM_P2
2022/01/29 00:01:31;;;;;;;21.42;10.93;;;7.50;99.90;;;;;;5113972;28;20055;-88
2022/01/29 00:03:57;;;;;;;25.38;11.50;;;7.50;99.90;;;;;;5115679;28;20043;-88
2022/01/29 00:06:22;;;;;;;23.25;11.75;;;7.50;99.90;;;;;;5114177;28;20036;-88
2022/01/29 00:08:48;;;;;;;21.90;10.90;;;7.50;99.90;;;;;;5113892;28;20043;-88
2022/01/29 00:11:16;;;;;;;27.50;12.45;;;7.50;99.90;;;;;;5115404;28;20396;-87
2022/01/29 00:13:41;;;;;;;22.27;11.75;;;7.60;99.90;;;;;;5096852;28;20550;-88
2022/01/29 00:16:07;;;;;;;22.08;11.50;;;7.50;99.90;;;;;;5115439;28;20119;-88
2022/01/29 00:18:34;;;;;;;24.63;12.88;;;7.50;99.90;;;;;;5113744;28;20472;-88
2022/01/29 00:20:59;;;;;;;31.95;12.60;;;7.50;99.90;;;;;;5115137;27;20096;-88
2022/01/29 00:23:25;;;;;;;26.55;12.88;;;7.50;99.90;;;;;;5115214;28;20047;-89
2022/01/29 00:25:50;;;;;;;27.63;13.25;;;7.50;99.90;;;;;;5114550;28;20048;-88
2022/01/29 00:28:16;;;;;;;26.63;13.63;;;7.40;99.90;;;;;;5114890;28;20127;-88
2022/01/29 00:30:43;;;;;;;26.70;13.27;;;7.40;99.90;;;;;;5114360;28;20457;-89
2022/01/29 00:33:09;;;;;;;31.90;13.60;;;7.40;99.90;;;;;;5063867;28;20396;-88
2022/01/29 00:35:35;;;;;;;26.70;13.60;;;7.40;99.90;;;;;;5079749;28;20108;-88
2022/01/29 00:38:01;;;;;;;25.60;12.88;;;7.30;99.90;;;;;;5096769;28;20039;-88
2022/01/29 00:40:27;;;;;;;28.25;13.95;;;7.40;99.90;;;;;;5114874;28;20123;-89
2022/01/29 00:42:52;;;;;;;30.38;14.07;;;7.30;99.90;;;;;;5096226;28;20048;-89
2022/01/29 00:45:18;;;;;;;34.65;14.02;;;7.30;99.90;;;;;;5096514;28;20049;-88
2022/01/29 00:47:44;;;;;;;25.73;13.63;;;7.30;99.90;;;;;;5114449;28;20096;-88
2022/01/29 00:50:10;;;;;;;27.75;14.27;;;7.20;99.90;;;;;;5114669;28;20048;-88
2022/01/29 00:52:36;;;;;;;27.10;13.70;;;7.30;99.90;;;;;;5095000;28;20126;-88
2022/01/29 00:55:02;;;;;;;29.08;14.48;;;7.20;99.90;;;;;;5114259;28;20518;-89
2022/01/29 00:57:30;;;;;;;28.83;15.65;;;7.30;99.90;;;;;;5096553;28;20071;-89
2022/01/29 00:59:56;;;;;;;28.95;15.38;;;7.30;99.90;;;;;;5078942;28;20043;-89
2022/01/29 01:02:22;;;;;;;33.55;15.30;;;7.20;99.90;;;;;;5095116;28;20084;-89
2022/01/29 01:04:48;;;;;;;29.67;15.68;;;7.30;99.90;;;;;;5113322;28;20097;-88
2022/01/29 01:07:13;;;;;;;28.92;15.18;;;7.30;99.90;;;;;;5113921;28;20132;-88
2022/01/29 01:09:39;;;;;;;37.22;17.15;;;7.30;99.90;;;;;;5113916;28;20087;-88
2022/01/29 01:12:05;;;;;;;31.38;16.30;;;7.30;99.90;;;;;;5114191;28;20392;-88
2022/01/29 01:14:31;;;;;;;31.48;16.20;;;7.30;99.90;;;;;;5096048;28;20039;-88
2022/01/29 01:16:56;;;;;;;36.40;16.23;;;7.30;99.90;;;;;;5113669;28;20388;-88
2022/01/29 01:19:25;;;;;;;31.08;15.35;;;7.30;99.90;;;;;;5095970;28;20399;-88
2022/01/29 01:21:55;;;;;;;33.45;16.30;;;7.40;99.90;;;;;;5113647;28;20126;-89
2022/01/29 01:24:20;;;;;;;33.22;16.63;;;7.40;99.90;;;;;;5095860;28;20135;-89
2022/01/29 01:26:46;;;;;;;31.90;16.48;;;7.40;99.90;;;;;;5095023;28;20470;-88
2022/01/29 01:29:12;;;;;;;35.22;17.25;;;7.40;99.90;;;;;;5113947;28;20040;-88
2022/01/29 01:31:39;;;;;;;35.65;17.25;;;7.40;99.90;;;;;;5113352;28;20084;-89
2022/01/29 01:34:06;;;;;;;32.88;16.42;;;7.50;99.90;;;;;;5095811;28;20063;-88
2022/01/29 01:36:34;;;;;;;36.38;16.83;;;7.50;99.90;;;;;;5095310;28;20552;-88
2022/01/29 01:39:05;;;;;;;41.55;18.05;;;7.60;99.90;;;;;;5113215;28;20058;-88
2022/01/29 01:41:37;;;;;;;32.90;17.55;;;7.50;99.90;;;;;;5113770;28;20044;-89
2022/01/29 01:44:03;;;;;;;44.53;17.25;;;7.50;99.90;;;;;;5095421;28;20087;-88
2022/01/29 01:46:29;;;;;;;37.90;17.58;;;7.60;99.90;;;;;;5113640;28;20060;-88
2022/01/29 01:48:55;;;;;;;39.47;18.60;;;7.60;99.90;;;;;;5095151;28;20073;-87
2022/01/29 01:51:21;;;;;;;39.17;17.83;;;7.70;99.90;;;;;;5113408;28;20112;-87
2022/01/29 01:53:47;;;;;;;39.80;18.25;;;7.60;99.90;;;;;;5095031;28;20055;-87
2022/01/29 01:56:13;;;;;;;41.47;18.27;;;7.60;99.90;;;;;;5095360;28;20514;-87
2022/01/29 01:58:39;;;;;;;40.65;18.52;;;7.70;99.90;;;;;;5113472;28;20083;-87
2022/01/29 02:01:04;;;;;;;40.72;19.05;;;7.60;99.90;;;;;;5112579;28;20058;-87
2022/01/29 02:03:30;;;;;;;39.63;19.20;;;7.70;99.90;;;;;;5112957;28;20096;-87
2022/01/29 02:05:56;;;;;;;42.28;18.92;;;7.70;99.90;;;;;;5112500;28;20044;-87
2022/01/29 02:08:22;;;;;;;43.88;19.05;;;7.70;99.90;;;;;;5095231;28;20047;-88
2022/01/29 02:10:49;;;;;;;45.63;18.45;;;7.80;99.90;;;;;;5112756;28;20536;-88
2022/01/29 02:13:14;;;;;;;43.85;19.15;;;7.80;99.90;;;;;;5113329;28;20376;-88
2022/01/29 02:15:40;;;;;;;44.20;18.77;;;7.80;99.90;;;;;;5113010;28;20047;-88
2022/01/29 02:18:12;;;;;;;43.25;18.30;;;7.80;99.90;;;;;;5112742;28;20516;-88
2022/01/29 02:20:38;;;;;;;41.60;18.38;;;7.80;99.90;;;;;;5096038;28;20043;-87
2022/01/29 02:23:03;;;;;;;43.63;17.77;;;7.80;99.90;;;;;;5094601;28;20232;-88
2022/01/29 02:25:38;;;;;;;35.95;17.60;;;7.80;99.90;;;;;;5112911;28;20446;-88
2022/01/29 02:28:06;;;;;;;34.38;17.50;;;7.80;99.90;;;;;;5112552;28;20108;-88
2022/01/29 02:30:34;;;;;;;36.33;16.77;;;7.80;99.90;;;;;;5094391;28;20549;-88
2022/01/29 02:33:03;;;;;;;39.67;17.58;;;7.90;99.90;;;;;;5078148;28;20059;-88
2022/01/29 02:35:28;;;;;;;35.10;15.55;;;7.90;99.90;;;;;;5078624;28;20512;-88
2022/01/29 02:37:55;;;;;;;40.75;16.70;;;7.90;99.90;;;;;;5094477;28;20441;-87
2022/01/29 02:40:22;;;;;;;40.58;16.70;;;7.90;99.90;;;;;;5112882;28;20081;-87
2022/01/29 02:42:49;;;;;;;33.50;16.10;;;7.90;99.90;;;;;;5094668;28;20046;-88
2022/01/29 02:45:15;;;;;;;39.53;16.02;;;7.90;99.90;;;;;;5112748;28;20054;-88
2022/01/29 02:47:41;;;;;;;35.97;15.55;;;8.00;99.90;;;;;;5095091;28;20051;-88
2022/01/29 02:50:07;;;;;;;36.90;15.77;;;8.10;99.90;;;;;;5094255;28;20196;-88
2022/01/29 02:52:33;;;;;;;37.17;15.70;;;7.90;99.90;;;;;;5112817;28;20059;-88
2022/01/29 02:54:59;;;;;;;31.88;15.48;;;8.00;99.90;;;;;;5112372;28;20043;-88
2022/01/29 02:57:24;;;;;;;34.80;15.15;;;8.00;99.90;;;;;;5094720;28;20046;-88
2022/01/29 02:59:51;;;;;;;32.83;15.27;;;7.90;99.90;;;;;;5077403;28;20048;-89
2022/01/29 03:02:17;;;;;;;34.30;14.85;;;8.00;99.90;;;;;;5112804;28;20079;-88
2022/01/29 03:04:43;;;;;;;37.53;14.98;;;8.00;99.90;;;;;;5112148;28;20100;-88
2022/01/29 03:07:08;;;;;;;36.67;14.93;;;8.00;99.90;;;;;;5111607;28;20046;-88
2022/01/29 03:09:34;;;;;;;33.65;15.05;;;8.10;99.90;;;;;;5077926;28;20039;-88
2022/01/29 03:12:00;;;;;;;30.45;14.77;;;8.10;99.90;;;;;;5112247;28;20503;-88
2022/01/29 03:14:25;;;;;;;30.60;15.00;;;8.10;99.90;;;;;;5113122;28;20090;-87
2022/01/29 03:16:51;;;;;;;30.58;14.20;;;8.10;99.90;;;;;;5116420;28;20127;-89
2022/01/29 03:19:17;;;;;;;29.02;14.07;;;8.10;99.90;;;;;;5116418;28;20046;-88
2022/01/29 03:21:42;;;;;;;35.05;14.00;;;8.10;99.90;;;;;;5116469;28;20525;-88
2022/01/29 03:24:08;;;;;;;33.53;14.32;;;8.10;99.90;;;;;;5115921;28;20039;-88
2022/01/29 03:26:33;;;;;;;34.22;13.80;;;8.10;99.90;;;;;;5116474;28;20093;-88
2022/01/29 03:28:59;;;;;;;35.42;13.82;;;8.10;99.90;;;;;;5097748;28;20445;-88
2022/01/29 03:31:28;;;;;;;24.70;13.73;;;8.10;99.90;;;;;;5087413;28;20486;-87
2022/01/29 03:33:54;;;;;;;29.88;13.23;;;8.10;99.90;;;;;;5115560;28;20086;-89
2022/01/29 03:36:19;;;;;;;35.20;13.82;;;8.20;99.90;;;;;;5115067;28;20427;-88
2022/01/29 03:38:45;;;;;;;31.83;13.55;;;8.20;99.90;;;;;;5115954;28;20086;-88
2022/01/29 03:41:13;;;;;;;31.38;13.30;;;8.20;99.90;;;;;;5115517;28;20093;-89
2022/01/29 03:43:49;;;;;;;28.45;13.65;;;8.20;99.90;;;;;;5114859;28;20047;-88
2022/01/29 03:46:15;;;;;;;26.30;13.07;;;8.20;99.90;;;;;;5115570;28;20391;-88
2022/01/29 03:48:40;;;;;;;31.27;13.98;;;8.30;99.90;;;;;;5114984;28;20044;-88
2022/01/29 03:51:06;;;;;;;27.35;14.25;;;8.20;99.90;;;;;;5114314;28;20368;-88
2022/01/29 03:53:32;;;;;;;28.38;14.07;;;8.20;99.90;;;;;;5115946;28;20044;-88
2022/01/29 03:55:57;;;;;;;29.52;14.65;;;8.20;99.90;;;;;;5115349;28;20039;-89
2022/01/29 03:58:23;;;;;;;28.52;14.00;;;8.30;99.90;;;;;;5115808;28;20557;-88
2022/01/29 04:00:48;;;;;;;26.27;14.00;;;8.20;99.90;;;;;;5114507;28;20373;-88
2022/01/29 04:03:14;;;;;;;29.80;13.63;;;8.30;99.90;;;;;;5115254;28;20494;-88
2022/01/29 04:05:40;;;;;;;31.23;14.77;;;8.30;99.90;;;;;;5115381;28;20039;-88
2022/01/29 04:08:13;;;;;;;24.40;13.63;;;8.30;99.90;;;;;;5115107;28;20156;-88
2022/01/29 04:10:39;;;;;;;27.20;15.27;;;8.30;99.90;;;;;;5114376;28;20119;-88
2022/01/29 04:13:06;;;;;;;25.50;14.30;;;8.30;99.90;;;;;;5115117;28;20086;-88
2022/01/29 04:15:31;;;;;;;29.48;13.35;;;8.30;99.90;;;;;;5115354;28;20048;-88
2022/01/29 04:17:57;;;;;;;34.47;14.82;;;8.30;99.90;;;;;;5115364;28;20092;-88
2022/01/29 04:20:23;;;;;;;26.58;14.73;;;8.30;99.90;;;;;;5114529;28;20548;-88
2022/01/29 04:22:48;;;;;;;26.75;14.35;;;8.30;99.90;;;;;;5115393;28;20117;-88
2022/01/29 04:25:14;;;;;;;23.20;14.30;;;8.30;99.90;;;;;;5114602;28;20148;-88
2022/01/29 04:27:43;;;;;;;27.92;14.10;;;8.30;99.90;;;;;;5115083;28;20126;-88
2022/01/29 04:30:24;;;;;;;27.80;14.32;;;8.40;99.90;;;;;;5114680;28;20108;-88
2022/01/29 04:35:19;;;;;;;30.10;14.27;;;8.30;99.90;;;;;;5114566;28;20415;-88
2022/01/29 04:37:44;;;;;;;27.10;14.05;;;8.30;99.90;;;;;;5097020;28;20391;-88
2022/01/29 04:40:11;;;;;;;26.42;13.55;;;8.40;99.90;;;;;;5114329;28;20055;-88
2022/01/29 04:42:36;;;;;;;24.05;13.25;;;8.40;99.90;;;;;;5113847;28;20046;-88
2022/01/29 04:45:02;;;;;;;28.35;13.65;;;8.40;99.90;;;;;;5113430;28;20130;-89
2022/01/29 04:47:28;;;;;;;23.73;13.20;;;8.40;99.90;;;;;;5114858;28;20571;-88
2022/01/29 04:49:54;;;;;;;27.33;14.20;;;8.40;99.90;;;;;;5113787;28;20118;-89
2022/01/29 04:52:19;;;;;;;29.40;13.43;;;8.50;99.90;;;;;;5114300;28;20101;-88
2022/01/29 04:54:45;;;;;;;33.05;13.63;;;8.40;99.90;;;;;;5114542;28;20093;-88
2022/01/29 04:57:11;;;;;;;24.08;13.82;;;8.50;99.90;;;;;;5113020;28;20092;-89
2022/01/29 04:59:36;;;;;;;21.35;13.80;;;8.50;99.90;;;;;;5096732;28;20121;-88
2022/01/29 05:02:02;;;;;;;24.42;13.63;;;8.50;99.90;;;;;;5114600;28;20044;-88
2022/01/29 05:04:28;;;;;;;24.77;14.57;;;8.50;99.90;;;;;;5112806;28;20081;-88
2022/01/29 05:06:53;;;;;;;22.35;13.60;;;8.50;99.90;;;;;;5114266;28;20124;-89
2022/01/29 05:09:19;;;;;;;26.17;13.52;;;8.50;99.90;;;;;;5112687;28;20139;-89
2022/01/29 05:11:48;;;;;;;25.55;14.02;;;8.50;99.90;;;;;;5114205;28;20086;-90
2022/01/29 05:14:24;;;;;;;24.23;13.55;;;8.50;99.90;;;;;;5113717;28;20044;-89
2022/01/29 05:27:35;;;;;;;23.98;13.15;;;8.50;99.90;;;;;;5114104;28;20437;-88
2022/01/29 05:30:00;;;;;;;24.70;13.45;;;8.60;99.90;;;;;;5112815;28;20048;-89
2022/01/29 05:32:26;;;;;;;24.67;12.88;;;8.60;99.90;;;;;;5113543;28;20056;-90
2022/01/29 05:34:51;;;;;;;22.17;12.18;;;8.60;99.90;;;;;;5113801;28;20044;-88
2022/01/29 05:37:17;;;;;;;23.58;13.20;;;8.60;99.90;;;;;;5112682;28;20035;-87
2022/01/29 05:39:43;;;;;;;22.15;12.98;;;8.60;99.90;;;;;;5095761;28;20047;-86
2022/01/29 05:42:09;;;;;;;22.77;12.48;;;8.70;99.90;;;;;;5113737;28;20105;-87
2022/01/29 05:44:34;;;;;;;23.55;12.52;;;8.60;99.90;;;;;;5113261;28;20054;-86
2022/01/29 05:47:00;;;;;;;22.35;12.82;;;8.60;99.90;;;;;;5095429;28;20076;-86
2022/01/29 05:49:25;;;;;;;22.83;12.52;;;8.60;99.90;;;;;;5113207;28;20127;-87
2022/01/29 05:51:52;;;;;;;27.20;12.70;;;8.60;99.90;;;;;;5113508;28;20528;-86
2022/01/29 05:54:17;;;;;;;24.83;12.20;;;8.80;99.90;;;;;;5113039;28;20047;-87
2022/01/29 05:56:43;;;;;;;23.10;12.27;;;8.70;99.90;;;;;;5113434;28;20165;-87
2022/01/29 05:59:09;;;;;;;23.10;12.32;;;8.70;99.90;;;;;;5113420;28;20047;-87
2022/01/29 06:01:34;;;;;;;23.60;12.27;;;8.80;99.90;;;;;;5094921;28;20039;-87
2022/01/29 06:04:00;;;;;;;20.55;11.98;;;8.70;99.90;;;;;;5113340;28;20044;-86
2022/01/29 06:06:25;;;;;;;20.75;11.63;;;8.90;99.90;;;;;;5094726;28;20126;-87
2022/01/29 06:08:51;;;;;;;23.60;11.80;;;8.70;99.90;;;;;;5113297;28;20088;-88
2022/01/29 06:11:17;;;;;;;19.23;11.65;;;8.80;99.90;;;;;;5094840;28;20047;-87
2022/01/29 06:13:43;;;;;;;22.65;11.43;;;8.80;99.90;;;;;;5113282;28;20468;-87
2022/01/29 06:16:09;;;;;;;21.63;11.70;;;8.80;99.90;;;;;;5113114;28;20089;-86
2022/01/29 06:18:35;;;;;;;18.55;11.57;;;8.80;99.90;;;;;;5112776;28;20379;-87
2022/01/29 06:21:04;;;;;;;26.10;11.00;;;8.80;99.90;;;;;;5113168;28;20070;-86
2022/01/29 06:23:32;;;;;;;23.38;11.43;;;8.80;99.90;;;;;;5077960;28;20052;-87
2022/01/29 06:25:59;;;;;;;21.48;11.63;;;8.80;99.90;;;;;;5112910;28;20039;-85
2022/01/29 06:28:24;;;;;;;20.23;10.80;;;8.80;99.90;;;;;;5112651;28;20446;-87
2022/01/29 06:30:50;;;;;;;19.00;11.20;;;8.80;99.90;;;;;;5112778;28;20055;-87
2022/01/29 06:33:16;;;;;;;22.35;10.45;;;8.80;99.90;;;;;;5095009;28;20567;-87
2022/01/29 06:35:42;;;;;;;22.83;11.52;;;8.80;99.90;;;;;;5112874;28;20048;-87
2022/01/29 06:38:09;;;;;;;17.77;10.77;;;8.80;99.90;;;;;;5094920;28;20054;-89
2022/01/29 06:40:35;;;;;;;20.55;10.93;;;8.80;99.90;;;;;;5077566;28;20135;-89
2022/01/29 06:43:04;;;;;;;20.02;10.77;;;8.90;99.90;;;;;;5077892;28;20118;-86
2022/01/29 06:45:33;;;;;;;19.52;10.48;;;8.90;99.90;;;;;;5078133;28;20399;-88
2022/01/29 06:47:58;;;;;;;21.70;11.20;;;8.90;99.90;;;;;;5094785;28;20043;-87
2022/01/29 06:50:24;;;;;;;17.65;10.57;;;8.90;99.90;;;;;;5116371;28;20126;-89
2022/01/29 06:52:50;;;;;;;16.55;10.07;;;8.90;99.90;;;;;;5117006;28;20430;-88
2022/01/29 06:55:15;;;;;;;20.88;10.52;;;9.00;99.90;;;;;;5098563;28;20040;-88
2022/01/29 06:57:41;;;;;;;18.90;10.75;;;9.00;99.90;;;;;;5098199;28;20136;-89
2022/01/29 07:00:07;;;;;;;19.92;10.70;;;9.00;99.90;;;;;;5117545;28;20043;-89
2022/01/29 07:02:36;;;;;;;16.55;10.15;;;9.00;99.90;;;;;;5118155;28;20517;-88
2022/01/29 07:05:03;;;;;;;18.05;10.77;;;9.00;99.90;;;;;;5098807;28;20040;-90
2022/01/29 07:07:28;;;;;;;15.75;10.48;;;9.00;99.90;;;;;;5116267;28;20044;-89
2022/01/29 07:09:54;;;;;;;20.17;10.55;;;9.00;99.90;;;;;;5116782;28;20047;-88
2022/01/29 07:12:20;;;;;;;14.80;10.20;;;9.00;99.90;;;;;;5116661;28;20497;-88
2022/01/29 07:14:49;;;;;;;15.82;9.65;;;9.00;99.90;;;;;;5116048;28;20541;-87
2022/01/29 07:17:17;;;;;;;19.63;10.60;;;9.00;99.90;;;;;;5116622;28;20050;-88
2022/01/29 07:19:46;;;;;;;17.98;10.35;;;9.00;99.90;;;;;;5097862;28;20952;-87
2022/01/29 07:22:12;;;;;;;20.40;10.75;;;9.00;99.90;;;;;;5098323;28;20455;-88
2022/01/29 07:24:38;;;;;;;20.17;11.10;;;9.00;99.90;;;;;;5097954;28;20036;-86
2022/01/29 07:27:04;;;;;;;18.50;10.32;;;9.00;99.90;;;;;;5097894;28;20047;-87
2022/01/29 07:29:30;;;;;;;15.55;9.77;;;8.90;99.90;;;;;;5097691;28;20047;-87
2022/01/29 07:31:58;;;;;;;17.65;9.93;;;8.90;99.90;;;;;;5116000;28;20132;-83
2022/01/29 07:34:24;;;;;;;15.35;9.95;;;8.90;99.90;;;;;;5065220;28;20044;-89
2022/01/29 07:36:54;;;;;;;18.38;10.13;;;8.90;99.90;;;;;;5081217;28;20040;-90
2022/01/29 07:39:25;;;;;;;18.70;10.13;;;8.90;99.90;;;;;;5098141;28;20051;-87
2022/01/29 07:41:51;;;;;;;19.42;10.15;;;8.90;99.90;;;;;;5081216;28;20044;-90
2022/01/29 07:44:17;;;;;;;16.85;9.82;;;8.90;99.90;;;;;;5081062;28;20208;-88
2022/01/29 07:46:42;;;;;;;20.60;10.07;;;8.90;99.90;;;;;;5097277;28;20046;-87
2022/01/29 07:49:09;;;;;;;20.55;10.27;;;8.90;99.90;;;;;;5080500;28;20039;-87
2022/01/29 07:51:34;;;;;;;16.67;9.30;;;8.90;99.90;;;;;;5115523;28;20132;-88
2022/01/29 07:54:00;;;;;;;17.38;9.15;;;8.90;99.90;;;;;;5064491;28;20522;-86
2022/01/29 07:56:26;;;;;;;18.92;9.15;;;8.90;99.90;;;;;;5097647;28;20392;-87
2022/01/29 07:58:51;;;;;;;14.63;9.50;;;8.90;99.90;;;;;;5097300;28;20503;-88
2022/01/29 08:01:18;;;;;;;17.80;9.57;;;8.90;99.90;;;;;;5096859;28;20395;-87
2022/01/29 08:03:50;;;;;;;18.67;9.43;;;8.90;99.90;;;;;;5063591;28;20098;-87
2022/01/29 08:06:17;;;;;;;19.77;9.68;;;9.00;99.90;;;;;;5066303;28;20048;-87
2022/01/29 08:08:43;;;;;;;18.25;8.93;;;9.00;99.90;;;;;;5097003;28;20049;-88
2022/01/29 08:11:09;;;;;;;20.65;8.95;;;8.90;99.90;;;;;;5115640;28;20043;-92
2022/01/29 08:13:35;;;;;;;15.45;9.18;;;9.00;99.90;;;;;;5115333;28;20043;-92
2022/01/29 08:16:01;;;;;;;19.77;9.25;;;9.00;99.90;;;;;;5117141;28;20118;-91
2022/01/29 08:18:26;;;;;;;18.83;9.27;;;9.00;99.90;;;;;;5115507;28;20051;-89
2022/01/29 08:20:52;;;;;;;20.60;9.27;;;9.00;99.90;;;;;;5115230;28;20055;-91
2022/01/29 08:23:17;;;;;;;25.42;9.50;;;9.00;99.90;;;;;;5080208;28;20126;-91
2022/01/29 08:25:43;;;;;;;16.05;8.55;;;9.00;99.90;;;;;;5114634;28;20122;-92
2022/01/29 08:28:09;;;;;;;18.05;8.48;;;9.00;99.90;;;;;;5097008;28;20043;-90
2022/01/29 08:30:34;;;;;;;16.90;8.07;;;9.10;99.90;;;;;;5096337;28;20567;-89
2022/01/29 08:33:00;;;;;;;17.45;7.93;;;9.10;99.90;;;;;;5113672;28;20094;-90
2022/01/29 08:35:26;;;;;;;18.48;7.88;;;9.10;99.90;;;;;;5114985;28;20043;-90
2022/01/29 08:37:53;;;;;;;21.17;7.97;;;9.10;99.90;;;;;;5096493;28;20122;-90
2022/01/29 08:40:19;;;;;;;17.05;7.45;;;9.20;99.90;;;;;;5096566;28;20091;-88
2022/01/29 08:42:44;;;;;;;14.95;7.05;;;9.20;99.90;;;;;;5114157;28;20058;-87
2022/01/29 08:45:10;;;;;;;14.15;6.80;;;9.20;99.90;;;;;;5114876;28;20051;-89
2022/01/29 08:47:36;;;;;;;13.77;7.05;;;9.20;99.90;;;;;;5096060;28;20368;-89
2022/01/29 08:50:03;;;;;;;14.02;6.97;;;9.20;99.90;;;;;;5113442;28;20051;-89
2022/01/29 08:52:29;;;;;;;16.25;6.57;;;9.30;99.90;;;;;;5096538;28;20048;-90
2022/01/29 08:54:55;;;;;;;13.32;5.95;;;9.30;99.90;;;;;;5113517;28;20477;-91
2022/01/29 08:57:21;;;;;;;12.27;6.00;;;9.40;99.90;;;;;;5113561;28;20039;-89
2022/01/29 08:59:46;;;;;;;13.50;5.45;;;9.40;99.90;;;;;;5114050;28;20050;-89
2022/01/29 09:02:12;;;;;;;10.68;6.15;;;9.50;99.90;;;;;;5113548;28;20046;-86
2022/01/29 09:04:38;;;;;;;13.77;5.57;;;9.50;99.90;;;;;;5113677;28;20047;-90
2022/01/29 09:07:03;;;;;;;10.88;5.47;;;9.60;99.90;;;;;;5113011;28;20043;-89
2022/01/29 09:09:29;;;;;;;14.32;6.10;;;9.60;99.90;;;;;;5112937;28;20074;-89
2022/01/29 09:11:55;;;;;;;17.38;5.85;;;9.60;99.90;;;;;;5111744;28;20116;-89
2022/01/29 09:14:21;;;;;;;11.70;4.68;;;9.60;99.90;;;;;;5114022;28;20047;-88
2022/01/29 09:16:46;;;;;;;11.00;4.95;;;9.60;99.90;;;;;;5095696;28;20036;-89
2022/01/29 09:19:12;;;;;;;9.57;5.32;;;9.60;99.90;;;;;;5096319;28;20314;-89
2022/01/29 09:21:38;;;;;;;11.02;4.90;;;9.60;99.90;;;;;;5114182;28;20043;-89
2022/01/29 09:24:04;;;;;;;11.25;5.10;;;9.70;99.90;;;;;;5113650;28;20047;-89
2022/01/29 09:26:29;;;;;;;12.02;5.00;;;9.70;99.90;;;;;;5095917;28;20118;-89
2022/01/29 09:28:55;;;;;;;11.68;4.85;;;9.70;99.90;;;;;;5094944;28;20054;-88
2022/01/29 09:31:21;;;;;;;12.63;4.80;;;9.70;99.90;;;;;;5112483;28;20062;-89
2022/01/29 09:33:46;;;;;;;10.18;4.63;;;9.80;99.90;;;;;;5095207;28;20055;-89
2022/01/29 09:36:12;;;;;;;12.80;4.75;;;9.80;99.90;;;;;;5095908;28;20049;-89
2022/01/29 09:38:38;;;;;;;12.02;4.60;;;9.80;99.90;;;;;;5112839;28;20043;-89
2022/01/29 09:41:04;;;;;;;9.77;4.28;;;9.80;99.90;;;;;;5112192;28;20047;-89
2022/01/29 09:43:31;;;;;;;12.10;4.07;;;9.80;99.90;;;;;;5095554;28;20043;-90
2022/01/29 09:45:57;;;;;;;8.93;4.25;;;9.80;99.90;;;;;;5111772;28;20491;-90
2022/01/29 09:48:24;;;;;;;9.50;3.65;;;9.80;99.90;;;;;;5112816;28;20102;-89
2022/01/29 09:50:51;;;;;;;11.63;3.70;;;9.80;99.90;;;;;;5113218;28;20046;-89
2022/01/29 09:53:20;;;;;;;11.32;3.97;;;9.80;99.90;;;;;;5095873;28;20438;-88
2022/01/29 09:55:46;;;;;;;12.23;3.65;;;9.90;99.90;;;;;;5094558;28;20035;-89
2022/01/29 09:58:11;;;;;;;9.38;3.47;;;9.90;99.90;;;;;;5112341;28;20042;-89
2022/01/29 10:00:37;;;;;;;9.00;3.50;;;9.90;99.90;;;;;;5112737;28;20044;-89
2022/01/29 10:03:14;;;;;;;12.90;3.60;;;9.90;99.90;;;;;;5112972;28;20070;-89
2022/01/29 10:05:41;;;;;;;8.55;3.60;;;10.00;99.90;;;;;;5113381;28;20383;-90
2022/01/29 10:08:07;;;;;;;11.98;3.78;;;10.00;99.90;;;;;;5111812;28;20400;-89
2022/01/29 10:10:40;;;;;;;11.63;3.40;;;10.00;99.90;;;;;;5112092;28;20047;-89
2022/01/29 10:13:25;;;;;;;10.63;3.03;;;10.10;99.90;;;;;;5112921;28;20094;-89
2022/01/29 10:15:51;;;;;;;8.65;2.67;;;10.10;99.90;;;;;;5111895;28;20399;-89
2022/01/29 10:18:24;;;;;;;7.93;3.30;;;10.10;99.90;;;;;;5095297;28;20048;-90
2022/01/29 10:20:50;;;;;;;10.95;2.88;;;10.10;99.90;;;;;;5111680;28;20089;-89
2022/01/29 10:23:16;;;;;;;8.77;2.88;;;10.20;99.90;;;;;;5111604;28;20491;-89
2022/01/29 10:25:44;;;;;;;9.90;2.63;;;10.20;99.90;;;;;;5078511;28;20040;-88
2022/01/29 10:28:20;;;;;;;9.70;2.75;;;10.20;99.90;;;;;;5111752;28;20065;-89
2022/01/29 10:30:49;;;;;;;13.27;2.83;;;10.30;99.90;;;;;;5111799;28;20044;-88
2022/01/29 10:33:19;;;;;;;8.60;2.30;;;10.20;99.90;;;;;;5094884;28;20441;-85
2022/01/29 10:35:46;;;;;;;6.70;2.53;;;10.30;99.90;;;;;;5113701;28;20079;-89
2022/01/29 10:38:12;;;;;;;10.45;2.85;;;10.40;99.90;;;;;;5111444;28;20055;-88
2022/01/29 10:40:39;;;;;;;8.95;2.50;;;10.50;99.90;;;;;;5094870;28;20439;-90
2022/01/29 10:43:08;;;;;;;10.27;2.55;;;10.50;99.90;;;;;;5112586;28;20096;-88
2022/01/29 10:45:35;;;;;;;11.57;2.58;;;10.50;99.90;;;;;;5111817;28;20044;-88
2022/01/29 10:48:01;;;;;;;12.35;2.70;;;10.50;99.90;;;;;;5094520;28;20043;-89
2022/01/29 10:50:27;;;;;;;9.50;2.78;;;10.50;99.90;;;;;;5113155;28;20036;-88
2022/01/29 10:52:52;;;;;;;10.70;2.85;;;10.50;99.90;;;;;;5111265;28;20052;-90
2022/01/29 10:55:18;;;;;;;8.77;2.72;;;10.60;99.90;;;;;;5111888;28;20487;-88
2022/01/29 10:57:45;;;;;;;13.38;2.60;;;10.50;99.90;;;;;;5094719;28;20044;-89
2022/01/29 11:00:26;;;;;;;9.52;2.30;;;10.50;99.90;;;;;;5111171;28;20399;-89
2022/01/29 11:02:53;;;;;;;11.75;2.65;;;10.50;99.90;;;;;;5111623;28;20087;-90
2022/01/29 11:05:19;;;;;;;11.75;2.65;;;10.50;99.90;;;;;;5112679;28;20043;-88
2022/01/29 11:07:50;;;;;;;9.90;2.20;;;10.50;99.90;;;;;;5111508;28;20051;-88
2022/01/29 11:10:16;;;;;;;10.52;2.25;;;10.50;99.90;;;;;;5095098;28;20048;-88
2022/01/29 11:12:43;;;;;;;10.63;2.70;;;10.50;99.90;;;;;;5077876;28;20053;-88
2022/01/29 11:15:09;;;;;;;10.38;2.15;;;10.50;99.90;;;;;;5111019;28;20066;-88
2022/01/29 11:17:34;;;;;;;11.35;2.30;;;10.60;99.90;;;;;;5094581;28;20141;-87
2022/01/29 11:20:00;;;;;;;8.45;2.30;;;10.60;99.90;;;;;;5112211;28;20387;-87
2022/01/29 11:22:40;;;;;;;10.43;2.50;;;10.50;99.90;;;;;;5111728;28;20055;-88
2022/01/29 11:25:15;;;;;;;6.75;2.22;;;10.60;99.90;;;;;;5079359;28;20087;-88
2022/01/29 11:27:43;;;;;;;8.88;2.15;;;10.60;99.90;;;;;;5111440;28;20047;-88
2022/01/29 11:30:09;;;;;;;8.35;2.15;;;10.60;99.90;;;;;;5112114;28;20051;-88
2022/01/29 11:32:40;;;;;;;7.25;2.15;;;10.60;99.90;;;;;;5111115;28;20047;-88
2022/01/29 11:35:05;;;;;;;;;;;10.70;99.90;;;;;;5094919;28;20047;-88
2022/01/29 11:37:47;;;;;;;9.38;2.38;;;10.70;99.90;;;;;;5116240;28;19976;-88
2022/01/29 11:40:15;;;;;;;9.68;2.00;;;10.70;99.90;;;;;;5099069;28;20073;-88
2022/01/29 11:42:53;;;;;;;10.25;2.15;;;10.60;99.90;;;;;;5115008;28;20066;-88
2022/01/29 11:45:44;;;;;;;11.38;2.10;;;10.60;99.90;;;;;;5115506;28;20087;-88
2022/01/29 11:48:25;;;;;;;8.52;2.20;;;10.70;99.90;;;;;;5114500;28;20386;-88
2022/01/29 11:50:58;;;;;;;10.13;2.15;;;10.70;99.90;;;;;;5115043;28;20479;-88
2022/01/29 11:53:25;;;;;;;7.40;2.00;;;10.70;99.90;;;;;;5097512;28;20083;-88
2022/01/29 11:55:51;;;;;;;7.65;2.00;;;10.80;99.90;;;;;;5114763;28;20043;-89
2022/01/29 11:58:20;;;;;;;11.57;2.00;;;11.00;99.90;;;;;;5114196;28;20050;-88
2022/01/29 12:00:51;;;;;;;8.35;1.85;;;10.90;99.90;;;;;;5115610;28;20083;-89
2022/01/29 12:03:41;;;;;;;8.45;1.92;;;11.00;99.90;;;;;;5113794;28;20047;-89
2022/01/29 12:09:10;;;;;;;7.93;2.00;;;11.00;99.90;;;;;;5114653;28;20399;-89
2022/01/29 12:11:38;;;;;;;8.15;1.90;;;11.00;99.90;;;;;;5113859;28;20058;-89
2022/01/29 12:14:13;;;;;;;7.60;1.55;;;11.00;99.90;;;;;;5080477;28;20108;-89
2022/01/29 12:16:49;;;;;;;7.88;1.70;;;11.10;99.90;;;;;;5114288;28;20093;-89
2022/01/29 12:19:42;;;;;;;10.38;1.80;;;11.10;99.90;;;;;;5113929;28;20047;-89
2022/01/29 12:22:12;;;;;;;7.45;2.05;;;11.10;99.90;;;;;;5113788;28;20052;-90
2022/01/29 12:24:39;;;;;;;9.38;1.83;;;11.20;99.90;;;;;;5115415;28;20058;-89
2022/01/29 12:27:05;;;;;;;6.95;1.52;;;11.20;99.90;;;;;;5096869;28;20040;-92
2022/01/29 12:29:30;;;;;;;11.43;2.00;;;11.20;99.90;;;;;;5114129;28;20123;-88
2022/01/29 12:31:57;;;;;;;6.85;1.63;;;11.30;99.90;;;;;;5113823;28;20056;-92
2022/01/29 12:34:24;;;;;;;8.85;1.73;;;11.20;99.90;;;;;;5099835;28;20071;-96
2022/01/29 12:36:51;;;;;;;6.15;1.48;;;11.20;99.90;;;;;;5120198;28;20369;-92
2022/01/29 12:39:24;;;;;;;8.40;1.60;;;11.30;99.90;;;;;;5101423;28;20132;-92
2022/01/29 12:44:38;;;;;;;10.00;2.25;;;11.30;99.90;;;;;;5107376;28;20079;-89
2022/01/29 12:47:04;;;;;;;6.30;1.67;;;11.40;99.90;;;;;;5060024;28;20037;-90
2022/01/29 12:49:39;;;;;;;8.77;1.50;;;11.40;99.90;;;;;;5073577;28;20040;-89
2022/01/29 12:52:07;;;;;;;11.00;2.20;;;11.40;99.90;;;;;;5069651;28;20051;-90
2022/01/29 12:54:34;;;;;;;9.98;1.70;;;11.40;99.90;;;;;;5089704;28;20048;-93
2022/01/29 12:57:00;;;;;;;13.88;2.20;;;11.40;99.90;;;;;;5074307;28;20072;-91
2022/01/29 12:59:26;;;;;;;13.18;2.13;;;11.40;99.90;;;;;;5072348;28;20127;-89